Time;durP1;ratioP1;P1;durP2;ratioP2;P2;SDS_P1;SDS_P2;PMS_P1;PMS_P2;Temp;Humidity;BMP_temperature;BMP_pressure;BME280_temperature;BME280_humidity;BME280_pressure;Samples;Min_cycle;Max_cycle;Signal;HPM_P1;HPM_P2
2022/11/14 00:01:43;;;;;;;;;;;;;;;;;;5032802;28;2104;-50
2022/11/14 00:04:29;;;;;;;;;;;;;;;;;;5033389;28;1902;-51
2022/11/14 00:07:15;;;;;;;;;;;;;;;;;;5033132;28;1925;-52
2022/11/14 00:10:01;;;;;;;;;;;;;;;;;;5033363;28;1862;-46
2022/11/14 00:12:46;;;;;;;;;;;;;;;;;;5033152;28;1980;-51
2022/11/14 00:15:32;;;;;;;;;;;;;;;;;;5033185;28;1827;-50
2022/11/14 00:18:19;;;;;;;;;;;;;;;;;;5032985;28;2106;-52
2022/11/14 00:21:04;;;;;;;;;;;;;;;;;;5032964;28;2089;-49
2022/11/14 00:23:50;;;;;;;;;;;;;;;;;;5032614;28;2439;-47
2022/11/14 00:26:35;;;;;;;;;;;;;;;;;;5032919;28;1943;-51
2022/11/14 00:29:21;;;;;;;;;;;;;;;;;;5032522;28;1821;-44
2022/11/14 00:32:06;;;;;;;;;;;;;;;;;;5033221;28;2173;-51
2022/11/14 00:34:52;;;;;;;;;;;;;;;;;;5031423;28;1855;-51
2022/11/14 00:37:37;;;;;;;;;;;;;;;;;;5032668;28;2134;-48
2022/11/14 00:40:23;;;;;;;;;;;;;;;;;;5032699;28;1986;-51
2022/11/14 00:43:08;;;;;;;;;;;;;;;;;;5033332;28;2054;-51
2022/11/14 00:45:54;;;;;;;;;;;;;;;;;;5052129;28;2028;-49
2022/11/14 00:48:39;;;;;;;;;;;;;;;;;;5052488;28;1941;-52
2022/11/14 00:51:25;;;;;;;;;;;;;;;;;;5051179;28;1984;-49
2022/11/14 00:54:10;;;;;;;;;;;;;;;;;;5052440;28;2118;-52
2022/11/14 00:56:56;;;;;;;;;;;;;;;;;;5052292;28;1869;-50
2022/11/14 00:59:42;;;;;;;;;;;;;;;;;;5051950;28;2122;-51
2022/11/14 01:02:27;;;;;;;;;;;;;;;;;;5052184;28;2133;-51
2022/11/14 01:05:13;;;;;;;;;;;;;;;;;;5051838;28;1946;-49
2022/11/14 01:07:59;;;;;;;;;;;;;;;;;;5052210;28;2127;-50
2022/11/14 01:10:46;;;;;;;;;;;;;;;;;;5052020;28;1843;-50
2022/11/14 01:13:32;;;;;;;;;;;;;;;;;;5052244;28;2048;-49
2022/11/14 01:16:18;;;;;;;;;;;;;;;;;;5051554;28;1836;-51
2022/11/14 01:19:05;;;;;;;;;;;;;;;;;;5051675;28;2077;-51
2022/11/14 01:21:50;;;;;;;;;;;;;;;;;;5051497;28;1973;-51
2022/11/14 01:24:35;;;;;;;;;;;;;;;;;;5051735;28;1977;-52
2022/11/14 01:27:21;;;;;;;;;;;;;;;;;;5051912;28;1971;-48
2022/11/14 01:30:10;;;;;;;;;;;;;;;;;;5051470;28;1977;-50
2022/11/14 01:32:55;;;;;;;;;;;;;;;;;;5051326;28;2005;-49
2022/11/14 01:35:41;;;;;;;;;;;;;;;;;;5051341;28;1984;-53
2022/11/14 01:38:26;;;;;;;;;;;;;;;;;;5051531;28;1936;-50
2022/11/14 01:41:14;;;;;;;;;;;;;;;;;;5051243;28;1973;-47
2022/11/14 01:43:59;;;;;;;;;;;;;;;;;;5043614;28;2126;-51
2022/11/14 01:46:46;;;;;;;;;;;;;;;;;;5030791;28;2031;-49
2022/11/14 01:49:36;;;;;;;;;;;;;;;;;;5031373;28;1875;-53
2022/11/14 01:52:27;;;;;;;;;;;;;;;;;;5031496;28;1855;-48
2022/11/14 01:55:12;;;;;;;;;;;;;;;;;;5031457;28;1869;-48
2022/11/14 01:57:59;;;;;;;;;;;;;;;;;;5031481;28;1980;-50
2022/11/14 02:00:44;;;;;;;;;;;;;;;;;;5030882;28;1914;-49
2022/11/14 02:03:30;;;;;;;;;;;;;;;;;;5031620;28;2082;-51
2022/11/14 02:06:18;;;;;;;;;;;;;;;;;;5031194;28;1888;-50
2022/11/14 02:09:05;;;;;;;;;;;;;;;;;;5031129;28;1895;-53
2022/11/14 02:11:52;;;;;;;;;;;;;;;;;;5031040;28;2059;-48
2022/11/14 02:14:40;;;;;;;;;;;;;;;;;;5031077;28;2003;-48
2022/11/14 02:17:26;;;;;;;;;;;;;;;;;;5031090;28;1987;-51
2022/11/14 02:20:22;;;;;;;;;;;;;;;;;;5031144;28;2062;-50
2022/11/14 02:23:08;;;;;;;;;;;;;;;;;;5030103;28;2267;-50
2022/11/14 02:25:54;;;;;;;;;;;;;;;;;;5031073;28;1985;-49
2022/11/14 02:28:39;;;;;;;;;;;;;;;;;;5030952;28;1924;-52
2022/11/14 02:31:25;;;;;;;;;;;;;;;;;;5030975;28;2034;-51
2022/11/14 02:34:11;;;;;;;;;;;;;;;;;;5031035;28;1848;-48
2022/11/14 02:36:57;;;;;;;;;;;;;;;;;;5031024;28;1812;-52
2022/11/14 02:39:43;;;;;;;;;;;;;;;;;;5030930;28;1893;-53
2022/11/14 02:42:28;;;;;;;;;;;;;;;;;;5030941;28;2022;-50
2022/11/14 02:45:14;;;;;;;;;;;;;;;;;;5048843;28;2016;-50
2022/11/14 02:48:00;;;;;;;;;;;;;;;;;;5049645;28;1859;-50
2022/11/14 02:50:48;;;;;;;;;;;;;;;;;;5050629;28;2040;-49
2022/11/14 02:53:36;;;;;;;;;;;;;;;;;;5050758;28;1882;-52
2022/11/14 02:56:22;;;;;;;;;;;;;;;;;;5050357;28;1888;-49
2022/11/14 02:59:08;;;;;;;;;;;;;;;;;;5052210;28;2185;-51
2022/11/14 03:01:54;;;;;;;;;;;;;;;;;;5053959;28;1935;-53
2022/11/14 03:04:40;;;;;;;;;;;;;;;;;;5054290;28;1925;-50
2022/11/14 03:07:26;;;;;;;;;;;;;;;;;;5054227;28;1994;-52
2022/11/14 03:10:12;;;;;;;;;;;;;;;;;;5054376;28;1840;-51
2022/11/14 03:12:58;;;;;;;;;;;;;;;;;;5053995;28;1990;-51
2022/11/14 03:15:45;;;;;;;;;;;;;;;;;;5054222;28;2021;-49
2022/11/14 03:18:31;;;;;;;;;;;;;;;;;;5054121;28;2073;-50
2022/11/14 03:21:18;;;;;;;;;;;;;;;;;;5053885;28;1965;-48
2022/11/14 03:24:04;;;;;;;;;;;;;;;;;;5054181;28;1966;-52
2022/11/14 03:26:49;;;;;;;;;;;;;;;;;;5054111;28;1941;-51
2022/11/14 03:29:35;;;;;;;;;;;;;;;;;;5053738;28;1850;-47
2022/11/14 03:32:21;;;;;;;;;;;;;;;;;;5052785;28;1942;-52
2022/11/14 03:35:07;;;;;;;;;;;;;;;;;;5053884;28;2010;-51
2022/11/14 03:37:53;;;;;;;;;;;;;;;;;;5053702;28;1944;-49
2022/11/14 03:40:40;;;;;;;;;;;;;;;;;;5053701;28;2008;-51
2022/11/14 03:43:29;;;;;;;;;;;;;;;;;;5053602;28;1999;-50
2022/11/14 03:46:15;;;;;;;;;;;;;;;;;;5053627;28;1813;-50
2022/11/14 03:49:00;;;;;;;;;;;;;;;;;;5053634;28;1917;-51
2022/11/14 03:51:47;;;;;;;;;;;;;;;;;;5053425;28;2154;-51
2022/11/14 03:54:32;;;;;;;;;;;;;;;;;;5053550;28;1717;-50
2022/11/14 03:57:18;;;;;;;;;;;;;;;;;;5053842;28;1914;-50
2022/11/14 04:00:03;;;;;;;;;;;;;;;;;;5053258;28;1975;-47
2022/11/14 04:02:49;;;;;;;;;;;;;;;;;;5053109;28;2093;-47
2022/11/14 04:05:35;;;;;;;;;;;;;;;;;;5050463;28;2064;-49
2022/11/14 04:08:21;;;;;;;;;;;;;;;;;;5053071;28;1861;-50
2022/11/14 04:11:07;;;;;;;;;;;;;;;;;;5052789;28;2078;-52
2022/11/14 04:13:52;;;;;;;;;;;;;;;;;;5053075;28;1821;-52
2022/11/14 04:16:38;;;;;;;;;;;;;;;;;;5053017;28;1839;-49
2022/11/14 04:19:24;;;;;;;;;;;;;;;;;;5052828;28;1931;-49
2022/11/14 04:22:10;;;;;;;;;;;;;;;;;;5053056;28;2082;-49
2022/11/14 04:24:55;;;;;;;;;;;;;;;;;;5052906;28;1995;-49
2022/11/14 04:27:42;;;;;;;;;;;;;;;;;;5032588;28;2150;-47
2022/11/14 04:30:27;;;;;;;;;;;;;;;;;;5032914;28;1973;-47
2022/11/14 04:33:19;;;;;;;;;;;;;;;;;;5032868;28;1908;-49
2022/11/14 04:36:04;;;;;;;;;;;;;;;;;;5032691;28;1853;-48
2022/11/14 04:38:50;;;;;;;;;;;;;;;;;;5032671;28;1988;-49
2022/11/14 04:41:36;;;;;;;;;;;;;;;;;;5032631;28;1969;-50
2022/11/14 04:44:21;;;;;;;;;;;;;;;;;;5043497;28;2018;-46
2022/11/14 04:47:07;;;;;;;;;;;;;;;;;;5052488;28;1887;-49
2022/11/14 04:49:52;;;;;;;;;;;;;;;;;;5052426;28;1825;-49
2022/11/14 04:52:38;;;;;;;;;;;;;;;;;;5052373;28;2085;-47
2022/11/14 04:55:23;;;;;;;;;;;;;;;;;;5052422;28;1969;-50
2022/11/14 04:58:09;;;;;;;;;;;;;;;;;;5052222;28;1950;-48
2022/11/14 05:00:56;;;;;;;;;;;;;;;;;;5032321;28;2083;-48
2022/11/14 05:03:42;;;;;;;;;;;;;;;;;;5032316;28;2090;-48
2022/11/14 05:06:28;;;;;;;;;;;;;;;;;;5032227;28;2007;-50
2022/11/14 05:09:14;;;;;;;;;;;;;;;;;;5032166;28;1924;-51
2022/11/14 05:12:00;;;;;;;;;;;;;;;;;;5045220;28;1925;-50
2022/11/14 05:14:45;;;;;;;;;;;;;;;;;;5032123;28;1971;-50
2022/11/14 05:17:31;;;;;;;;;;;;;;;;;;5032360;28;1915;-49
2022/11/14 05:20:17;;;;;;;;;;;;;;;;;;5031954;28;1984;-50
2022/11/14 05:23:03;;;;;;;;;;;;;;;;;;5031669;28;2068;-49
2022/11/14 05:26:08;;;;;;;;;;;;;;;;;;5031955;28;1955;-49
2022/11/14 05:28:54;;;;;;;;;;;;;;;;;;5031696;28;1995;-50
2022/11/14 05:31:40;;;;;;;;;;;;;;;;;;5031813;28;1948;-51
2022/11/14 05:34:25;;;;;;;;;;;;;;;;;;5031749;28;1846;-50
2022/11/14 05:37:11;;;;;;;;;;;;;;;;;;5031741;28;2222;-48
2022/11/14 05:39:57;;;;;;;;;;;;;;;;;;5031657;28;2150;-50
2022/11/14 05:42:42;;;;;;;;;;;;;;;;;;5031416;28;2083;-51
2022/11/14 05:45:29;;;;;;;;;;;;;;;;;;5051516;28;1910;-47
2022/11/14 05:48:15;;;;;;;;;;;;;;;;;;5051368;28;2004;-48
2022/11/14 05:51:02;;;;;;;;;;;;;;;;;;5050623;28;1871;-46
2022/11/14 05:53:47;;;;;;;;;;;;;;;;;;5051335;28;1899;-48
2022/11/14 05:56:34;;;;;;;;;;;;;;;;;;5051502;28;1970;-48
2022/11/14 05:59:20;;;;;;;;;;;;;;;;;;5051133;28;2049;-50
2022/11/14 06:02:06;;;;;;;;;;;;;;;;;;5051190;28;1963;-49
2022/11/14 06:04:52;;;;;;;;;;;;;;;;;;5051229;28;2129;-46
2022/11/14 06:07:38;;;;;;;;;;;;;;;;;;5051036;28;1855;-51
2022/11/14 06:10:24;;;;;;;;;;;;;;;;;;5051217;28;1897;-49
2022/11/14 06:13:10;;;;;;;;;;;;;;;;;;5051225;28;2013;-51
2022/11/14 06:15:59;;;;;;;;;;;;;;;;;;5049967;28;1973;-47
2022/11/14 06:18:45;;;;;;;;;;;;;;;;;;5050874;28;2005;-48
2022/11/14 06:21:31;;;;;;;;;;;;;;;;;;5051090;28;1980;-51
2022/11/14 06:24:17;;;;;;;;;;;;;;;;;;5051083;28;1945;-51
2022/11/14 06:27:02;;;;;;;;;;;;;;;;;;5051162;28;2037;-47
2022/11/14 06:29:48;;;;;;;;;;;;;;;;;;5050745;28;1883;-51
2022/11/14 06:32:33;;;;;;;;;;;;;;;;;;5052208;28;2276;-48
2022/11/14 06:35:20;;;;;;;;;;;;;;;;;;5055078;28;2072;-48
2022/11/14 06:38:05;;;;;;;;;;;;;;;;;;5054964;28;1964;-51
2022/11/14 06:40:51;;;;;;;;;;;;;;;;;;5054973;28;2014;-48
2022/11/14 06:43:40;;;;;;;;;;;;;;;;;;5054629;28;1983;-49
2022/11/14 06:46:26;;;;;;;;;;;;;;;;;;5054716;28;2064;-52
2022/11/14 06:49:11;;;;;;;;;;;;;;;;;;5054584;28;1794;-48
2022/11/14 06:51:57;;;;;;;;;;;;;;;;;;5054618;28;2115;-49
2022/11/14 06:54:43;;;;;;;;;;;;;;;;;;5054967;28;2009;-50
2022/11/14 06:57:29;;;;;;;;;;;;;;;;;;5054568;28;2155;-50
2022/11/14 07:00:14;;;;;;;;;;;;;;;;;;5054482;28;1829;-50
2022/11/14 07:03:00;;;;;;;;;;;;;;;;;;5054739;28;2007;-51
2022/11/14 07:05:46;;;;;;;;;;;;;;;;;;5054297;28;1998;-49
2022/11/14 07:08:32;;;;;;;;;;;;;;;;;;5054304;28;1890;-49
2022/11/14 07:11:22;;;;;;;;;;;;;;;;;;5054242;28;2059;-50
2022/11/14 07:14:08;;;;;;;;;;;;;;;;;;5054220;28;1979;-50
2022/11/14 07:16:53;;;;;;;;;;;;;;;;;;5054358;28;2057;-49
2022/11/14 07:19:39;;;;;;;;;;;;;;;;;;5054077;28;1922;-53
2022/11/14 07:22:25;;;;;;;;;;;;;;;;;;5054088;28;2053;-52
2022/11/14 07:25:11;;;;;;;;;;;;;;;;;;5053986;28;1981;-52
2022/11/14 07:27:57;;;;;;;;;;;;;;;;;;5053861;28;1921;-46
2022/11/14 07:30:44;;;;;;;;;;;;;;;;;;5054150;28;1843;-51
2022/11/14 07:33:30;;;;;;;;;;;;;;;;;;5053498;28;1999;-49
2022/11/14 07:36:16;;;;;;;;;;;;;;;;;;5053845;28;1921;-53
2022/11/14 07:39:02;;;;;;;;;;;;;;;;;;5054043;28;2036;-50
2022/11/14 07:41:48;;;;;;;;;;;;;;;;;;5053622;28;1922;-49
2022/11/14 07:44:33;;;;;;;;;;;;;;;;;;5053080;28;1924;-51
2022/11/14 07:47:20;;;;;;;;;;;;;;;;;;5053649;28;1972;-52
2022/11/14 07:50:07;;;;;;;;;;;;;;;;;;5053642;28;1899;-52
2022/11/14 07:52:54;;;;;;;;;;;;;;;;;;5053622;28;2021;-52
2022/11/14 07:55:40;;;;;;;;;;;;;;;;;;5053488;28;1968;-49
2022/11/14 07:58:26;;;;;;;;;;;;;;;;;;5053116;28;1884;-52
2022/11/14 08:01:12;;;;;;;;;;;;;;;;;;5053384;28;2166;-53
2022/11/14 08:03:59;;;;;;;;;;;;;;;;;;5053124;28;1953;-49
2022/11/14 08:06:44;;;;;;;;;;;;;;;;;;5053168;28;2119;-49
2022/11/14 08:09:30;;;;;;;;;;;;;;;;;;5053433;28;2040;-50
2022/11/14 08:12:16;;;;;;;;;;;;;;;;;;5053199;28;2227;-51
2022/11/14 08:15:02;;;;;;;;;;;;;;;;;;5053159;28;1995;-51
2022/11/14 08:17:48;;;;;;;;;;;;;;;;;;5051992;28;1990;-49
2022/11/14 08:20:34;;;;;;;;;;;;;;;;;;5053049;28;2068;-48
2022/11/14 08:23:20;;;;;;;;;;;;;;;;;;5052869;28;2132;-51
2022/11/14 08:26:06;;;;;;;;;;;;;;;;;;5052705;28;1923;-50
2022/11/14 08:28:52;;;;;;;;;;;;;;;;;;5052727;28;1816;-49
2022/11/14 08:31:38;;;;;;;;;;;;;;;;;;5052592;28;1870;-52
2022/11/14 08:34:24;;;;;;;;;;;;;;;;;;5052824;28;1928;-48
2022/11/14 08:37:10;;;;;;;;;;;;;;;;;;5052798;28;1998;-48
2022/11/14 08:39:57;;;;;;;;;;;;;;;;;;5052490;28;1924;-51
2022/11/14 08:42:43;;;;;;;;;;;;;;;;;;5052495;28;1959;-49
2022/11/14 08:45:29;;;;;;;;;;;;;;;;;;5032529;28;2022;-52
2022/11/14 08:48:15;;;;;;;;;;;;;;;;;;5032454;28;1830;-52
2022/11/14 08:51:02;;;;;;;;;;;;;;;;;;5032814;28;2060;-52
2022/11/14 08:53:51;;;;;;;;;;;;;;;;;;5032294;28;2057;-46
2022/11/14 08:56:37;;;;;;;;;;;;;;;;;;5031237;28;2151;-53
2022/11/14 08:59:23;;;;;;;;;;;;;;;;;;5032409;28;2157;-49
2022/11/14 09:02:15;;;;;;;;;;;;;;;;;;5032255;28;1950;-50
2022/11/14 09:05:00;;;;;;;;;;;;;;;;;;5032405;28;1978;-50
2022/11/14 09:07:46;;;;;;;;;;;;;;;;;;5031979;28;2005;-51
2022/11/14 09:10:33;;;;;;;;;;;;;;;;;;5032407;28;2024;-50
2022/11/14 09:13:19;;;;;;;;;;;;;;;;;;5032054;28;1893;-52
2022/11/14 09:16:04;;;;;;;;;;;;;;;;;;5032320;28;1943;-48
2022/11/14 09:18:50;;;;;;;;;;;;;;;;;;5031920;28;2019;-50
2022/11/14 09:21:37;;;;;;;;;;;;;;;;;;5031857;28;1981;-50
2022/11/14 09:24:23;;;;;;;;;;;;;;;;;;5031916;28;2070;-52
2022/11/14 09:27:09;;;;;;;;;;;;;;;;;;5031792;28;1889;-50
2022/11/14 09:29:55;;;;;;;;;;;;;;;;;;5031504;28;2034;-53
2022/11/14 09:32:41;;;;;;;;;;;;;;;;;;5031729;28;1836;-52
2022/11/14 09:35:28;;;;;;;;;;;;;;;;;;5031589;28;2066;-52
2022/11/14 09:38:14;;;;;;;;;;;;;;;;;;5031447;28;1930;-49
2022/11/14 09:41:03;;;;;;;;;;;;;;;;;;5031681;28;2000;-51
2022/11/14 09:44:07;;;;;;;;;;;;;;;;;;5037914;28;1986;-50
2022/11/14 09:46:58;;;;;;;;;;;;;;;;;;5051517;28;2233;-51
2022/11/14 09:49:45;;;;;;;;;;;;;;;;;;5051333;28;1890;-51
2022/11/14 09:52:34;;;;;;;;;;;;;;;;;;5051645;28;2077;-48
2022/11/14 09:55:27;;;;;;;;;;;;;;;;;;5051458;28;2157;-48
2022/11/14 09:58:19;;;;;;;;;;;;;;;;;;5051245;28;2098;-48
2022/11/14 10:01:25;;;;;;;;;;;;;;;;;;5051382;28;2036;-50
2022/11/14 10:04:18;;;;;;;;;;;;;;;;;;5051195;28;2065;-50
2022/11/14 10:07:04;;;;;;;;;;;;;;;;;;5051112;28;1954;-53
2022/11/14 10:09:53;;;;;;;;;;;;;;;;;;5051217;28;2004;-50
2022/11/14 10:12:51;;;;;;;;;;;;;;;;;;5051071;28;1933;-51
2022/11/14 10:15:56;;;;;;;;;;;;;;;;;;5050986;28;1978;-51
2022/11/14 10:18:49;;;;;;;;;;;;;;;;;;5051055;28;1913;-52
2022/11/14 10:21:58;;;;;;;;;;;;;;;;;;5051122;28;1886;-48
2022/11/14 10:24:50;;;;;;;;;;;;;;;;;;5051093;28;2064;-50
2022/11/14 10:27:41;;;;;;;;;;;;;;;;;;5050656;28;1947;-51
2022/11/14 10:30:33;;;;;;;;;;;;;;;;;;5050962;28;2035;-51
2022/11/14 10:33:28;;;;;;;;;;;;;;;;;;5050851;28;2081;-51
2022/11/14 10:36:32;;;;;;;;;;;;;;;;;;5051122;28;1931;-53
2022/11/14 10:39:17;;;;;;;;;;;;;;;;;;5050968;28;1964;-51
2022/11/14 10:42:10;;;;;;;;;;;;;;;;;;5050668;28;2088;-48
2022/11/14 10:45:05;;;;;;;;;;;;;;;;;;5050590;28;1957;-50
2022/11/14 10:47:57;;;;;;;;;;;;;;;;;;5050723;28;2091;-50
2022/11/14 10:50:51;;;;;;;;;;;;;;;;;;5050806;28;2068;-48
2022/11/14 10:53:44;;;;;;;;;;;;;;;;;;5050657;28;1783;-48
2022/11/14 10:56:30;;;;;;;;;;;;;;;;;;5050731;28;2470;-52
2022/11/14 10:59:16;;;;;;;;;;;;;;;;;;5050585;28;1996;-50
2022/11/14 11:02:01;;;;;;;;;;;;;;;;;;5050973;28;1944;-52
2022/11/14 11:04:47;;;;;;;;;;;;;;;;;;5050637;28;2074;-49
2022/11/14 11:14:04;;;;;;;;;;;;;;;;;;5050467;28;2000;-53
2022/11/14 11:17:06;;;;;;;;;;;;;;;;;;5050456;28;1973;-48
2022/11/14 11:19:52;;;;;;;;;;;;;;;;;;5050718;28;1945;-52
2022/11/14 11:22:38;;;;;;;;;;;;;;;;;;5053003;28;1993;-52
2022/11/14 11:25:25;;;;;;;;;;;;;;;;;;5050912;28;1883;-48
2022/11/14 11:28:11;;;;;;;;;;;;;;;;;;5051401;28;1820;-53
2022/11/14 11:31:00;;;;;;;;;;;;;;;;;;5050763;28;1847;-49
2022/11/14 11:33:46;;;;;;;;;;;;;;;;;;5050191;28;1825;-53
2022/11/14 11:36:39;;;;;;;;;;;;;;;;;;5049141;28;1903;-50
2022/11/14 11:39:28;;;;;;;;;;;;;;;;;;5051420;28;1816;-49
2022/11/14 11:42:16;;;;;;;;;;;;;;;;;;5052234;28;1843;-53
2022/11/14 11:45:04;;;;;;;;;;;;;;;;;;5053585;28;1979;-52
2022/11/14 11:47:58;;;;;;;;;;;;;;;;;;5053582;28;1858;-49
2022/11/14 11:50:44;;;;;;;;;;;;;;;;;;5053663;28;1972;-50
2022/11/14 11:53:35;;;;;;;;;;;;;;;;;;5053148;28;2044;-51
2022/11/14 11:56:23;;;;;;;;;;;;;;;;;;5053395;28;1955;-52
2022/11/14 11:59:19;;;;;;;;;;;;;;;;;;5052271;28;1750;-53
2022/11/14 12:02:22;;;;;;;;;;;;;;;;;;5051552;28;1915;-52
2022/11/14 12:05:12;;;;;;;;;;;;;;;;;;5051539;28;1918;-51
2022/11/14 12:08:03;;;;;;;;;;;;;;;;;;5051588;28;1821;-52
2022/11/14 12:10:49;;;;;;;;;;;;;;;;;;5051486;28;1868;-51
2022/11/14 12:13:44;;;;;;;;;;;;;;;;;;5050748;28;1944;-47
2022/11/14 12:16:49;;;;;;;;;;;;;;;;;;5052880;28;1833;-50
2022/11/14 12:19:35;;;;;;;;;;;;;;;;;;5053119;28;2186;-47
2022/11/14 12:22:49;;;;;;;;;;;;;;;;;;5053146;28;1966;-45
2022/11/14 12:25:38;;;;;;;;;;;;;;;;;;5053196;28;2032;-50
2022/11/14 12:28:43;;;;;;;;;;;;;;;;;;5053072;28;2007;-52
2022/11/14 12:31:33;;;;;;;;;;;;;;;;;;5052434;28;1988;-50
2022/11/14 12:34:38;;;;;;;;;;;;;;;;;;5052773;28;1870;-50
2022/11/14 12:37:32;;;;;;;;;;;;;;;;;;5052642;28;2024;-52
2022/11/14 12:40:38;;;;;;;;;;;;;;;;;;5052708;28;2048;-53
2022/11/14 12:43:30;;;;;;;;;;;;;;;;;;5052500;28;1955;-53
2022/11/14 12:46:27;;;;;;;;;;;;;;;;;;5052619;28;1968;-51
2022/11/14 12:49:33;;;;;;;;;;;;;;;;;;5052482;28;1901;-53
2022/11/14 12:52:38;;;;;;;;;;;;;;;;;;5050206;28;2245;-52
2022/11/14 12:55:24;;;;;;;;;;;;;;;;;;5052193;28;2182;-53
2022/11/14 12:58:13;;;;;;;;;;;;;;;;;;5052163;28;1889;-53
2022/11/14 13:01:15;;;;;;;;;;;;;;;;;;5052498;28;2039;-51
2022/11/14 13:04:04;;;;;;;;;;;;;;;;;;5052009;28;2110;-53
2022/11/14 13:07:07;;;;;;;;;;;;;;;;;;5051999;28;1942;-51
2022/11/14 13:09:58;;;;;;;;;;;;;;;;;;5052005;28;1808;-54
2022/11/14 13:22:14;;;;;;;;;;;;;;;;;;5051738;28;1977;-54
2022/11/14 13:25:00;;;;;;;;;;;;;;;;;;5050345;28;2028;-54
2022/11/14 13:27:47;;;;;;;;;;;;;;;;;;5051537;28;1932;-51
2022/11/14 13:31:06;;;;;;;;;;;;;;;;;;5051717;28;2113;-57
2022/11/14 13:33:58;;;;;;;;;;;;;;;;;;5051434;28;1967;-54
2022/11/14 13:36:47;;;;;;;;;;;;;;;;;;5051640;28;1984;-53
2022/11/14 13:39:44;;;;;;;;;;;;;;;;;;5051777;28;1899;-55
2022/11/14 13:42:33;;;;;;;;;;;;;;;;;;5051046;28;1769;-52
2022/11/14 13:45:27;;;;;;;;;;;;;;;;;;5051175;28;2052;-51
2022/11/14 13:48:39;;;;;;;;;;;;;;;;;;5050312;28;1891;-53
2022/11/14 13:51:31;;;;;;;;;;;;;;;;;;5042422;28;1879;-52
2022/11/14 13:54:32;;;;;;;;;;;;;;;;;;5051183;28;1994;-52
2022/11/14 13:57:26;;;;;;;;;;;;;;;;;;5051196;28;2149;-54
2022/11/14 14:00:15;;;;;;;;;;;;;;;;;;5051136;28;2131;-50
2022/11/14 14:03:11;;;;;;;;;;;;;;;;;;5051358;28;2131;-52
2022/11/14 14:06:02;;;;;;;;;;;;;;;;;;5051104;28;2006;-49
2022/11/14 14:08:56;;;;;;;;;;;;;;;;;;5051190;28;2055;-54
2022/11/14 14:11:48;;;;;;;;;;;;;;;;;;5051102;28;1916;-55
2022/11/14 14:14:49;;;;;;;;;;;;;;;;;;5051175;28;2174;-54
2022/11/14 14:17:49;;;;;;;;;;;;;;;;;;5051030;28;1913;-53
2022/11/14 14:20:37;;;;;;;;;;;;;;;;;;5051260;28;2106;-52
2022/11/14 14:23:32;;;;;;;;;;;;;;;;;;5050992;28;1925;-53
2022/11/14 14:26:25;;;;;;;;;;;;;;;;;;5050922;28;2036;-53
2022/11/14 14:29:26;;;;;;;;;;;;;;;;;;5050958;28;1817;-52
2022/11/14 14:32:14;;;;;;;;;;;;;;;;;;5050798;28;1820;-52
2022/11/14 14:35:12;;;;;;;;;;;;;;;;;;5050843;28;1996;-52
2022/11/14 14:37:58;;;;;;;;;;;;;;;;;;5050744;28;2139;-52
2022/11/14 14:40:44;;;;;;;;;;;;;;;;;;5050798;28;2098;-53
2022/11/14 14:43:33;;;;;;;;;;;;;;;;;;5050630;28;2166;-53
2022/11/14 14:46:31;;;;;;;;;;;;;;;;;;5050800;28;2038;-51
2022/11/14 14:49:26;;;;;;;;;;;;;;;;;;5050902;28;2113;-55
2022/11/14 14:52:18;;;;;;;;;;;;;;;;;;5050859;28;1980;-53
2022/11/14 14:55:05;;;;;;;;;;;;;;;;;;5052384;28;1906;-51
2022/11/14 14:57:52;;;;;;;;;;;;;;;;;;5054366;28;2034;-51
2022/11/14 15:00:38;;;;;;;;;;;;;;;;;;5054701;28;1940;-50
2022/11/14 15:03:25;;;;;;;;;;;;;;;;;;5054360;28;2021;-53
2022/11/14 15:06:47;;;;;;;;;;;;;;;;;;5054489;28;2013;-52
2022/11/14 15:09:33;;;;;;;;;;;;;;;;;;4992927;28;2055;-50
2022/11/14 15:12:19;;;;;;;;;;;;;;;;;;5054485;28;2074;-54
2022/11/14 15:15:06;;;;;;;;;;;;;;;;;;5054365;28;1823;-53
2022/11/14 15:17:53;;;;;;;;;;;;;;;;;;5052915;28;1975;-51
2022/11/14 15:20:40;;;;;;;;;;;;;;;;;;5054076;28;2155;-46
2022/11/14 15:23:26;;;;;;;;;;;;;;;;;;5054342;28;1942;-52
2022/11/14 15:26:13;;;;;;;;;;;;;;;;;;5053968;28;1982;-50
2022/11/14 15:29:19;;;;;;;;;;;;;;;;;;5053866;28;1879;-52
2022/11/14 15:32:05;;;;;;;;;;;;;;;;;;5054133;28;1979;-52
2022/11/14 15:35:10;;;;;;;;;;;;;;;;;;5054006;28;2119;-52
2022/11/14 15:38:03;;;;;;;;;;;;;;;;;;5053770;28;1693;-50
2022/11/14 15:41:19;;;;;;;;;;;;;;;;;;5053084;28;1955;-50
2022/11/14 15:44:27;;;;;;;;;;;;;;;;;;5053626;28;1979;-54
2022/11/14 15:47:22;;;;;;;;;;;;;;;;;;5053620;28;1231;-53
2022/11/14 15:50:11;;;;;;;;;;;;;;;;;;5053567;28;1919;-53
2022/11/14 15:53:00;;;;;;;;;;;;;;;;;;5053581;28;1698;-52
2022/11/14 15:55:51;;;;;;;;;;;;;;;;;;5053788;28;1835;-53
2022/11/14 15:58:42;;;;;;;;;;;;;;;;;;5053218;28;1923;-47
2022/11/14 16:01:34;;;;;;;;;;;;;;;;;;5053526;28;1420;-51
2022/11/14 16:04:23;;;;;;;;;;;;;;;;;;5052914;28;1902;-53
2022/11/14 16:07:14;;;;;;;;;;;;;;;;;;5053048;28;1952;-52
2022/11/14 16:10:01;;;;;;;;;;;;;;;;;;5051966;28;1877;-53
2022/11/14 16:12:48;;;;;;;;;;;;;;;;;;5053420;28;2028;-53
2022/11/14 16:15:39;;;;;;;;;;;;;;;;;;5053340;28;1438;-53
2022/11/14 16:18:27;;;;;;;;;;;;;;;;;;5053068;28;1905;-53
2022/11/14 16:21:18;;;;;;;;;;;;;;;;;;5053223;28;1796;-54
2022/11/14 16:24:10;;;;;;;;;;;;;;;;;;5052037;28;1981;-54
2022/11/14 16:26:57;;;;;;;;;;;;;;;;;;5053004;28;1925;-53
2022/11/14 16:29:44;;;;;;;;;;;;;;;;;;5052713;28;1412;-54
2022/11/14 16:32:30;;;;;;;;;;;;;;;;;;5052827;28;1621;-49
2022/11/14 16:35:21;;;;;;;;;;;;;;;;;;5052965;28;1113;-53
2022/11/14 16:38:08;;;;;;;;;;;;;;;;;;5053100;28;2003;-53
2022/11/14 16:40:54;;;;;;;;;;;;;;;;;;5052652;28;2216;-54
2022/11/14 16:43:39;;;;;;;;;;;;;;;;;;5052667;28;2082;-53
2022/11/14 16:46:25;;;;;;;;;;;;;;;;;;5052418;28;1889;-54
2022/11/14 16:49:15;;;;;;;;;;;;;;;;;;5052469;28;1948;-53
2022/11/14 16:52:05;;;;;;;;;;;;;;;;;;5052761;28;2091;-53
2022/11/14 16:54:51;;;;;;;;;;;;;;;;;;5052487;28;2017;-53
2022/11/14 16:57:37;;;;;;;;;;;;;;;;;;5052685;28;2195;-53
2022/11/14 17:00:23;;;;;;;;;;;;;;;;;;5052214;28;2224;-52
2022/11/14 17:03:09;;;;;;;;;;;;;;;;;;5052349;28;2007;-52
2022/11/14 17:05:54;;;;;;;;;;;;;;;;;;5051928;28;1986;-51
2022/11/14 17:08:40;;;;;;;;;;;;;;;;;;5052159;28;1918;-51
2022/11/14 17:11:26;;;;;;;;;;;;;;;;;;5052206;28;2052;-51
2022/11/14 17:14:11;;;;;;;;;;;;;;;;;;5052023;28;1930;-51
2022/11/14 17:16:57;;;;;;;;;;;;;;;;;;5051246;28;1896;-55
2022/11/14 17:19:48;;;;;;;;;;;;;;;;;;5051864;28;2059;-50
2022/11/14 17:22:34;;;;;;;;;;;;;;;;;;5032776;28;2133;-53
2022/11/14 17:25:20;;;;;;;;;;;;;;;;;;5031743;28;1965;-52
2022/11/14 17:28:06;;;;;;;;;;;;;;;;;;5032106;28;2306;-54
2022/11/14 17:30:51;;;;;;;;;;;;;;;;;;5030805;28;1884;-53
2022/11/14 17:33:43;;;;;;;;;;;;;;;;;;5031962;28;1907;-49
2022/11/14 17:36:48;;;;;;;;;;;;;;;;;;5031693;28;1954;-51
2022/11/14 17:39:34;;;;;;;;;;;;;;;;;;5031496;28;2023;-51
2022/11/14 17:42:19;;;;;;;;;;;;;;;;;;5031707;28;1959;-51
2022/11/14 17:45:08;;;;;;;;;;;;;;;;;;5047919;28;1902;-48
2022/11/14 17:47:55;;;;;;;;;;;;;;;;;;5050971;28;1794;-48
2022/11/14 17:50:42;;;;;;;;;;;;;;;;;;5051522;28;2052;-48
2022/11/14 17:53:31;;;;;;;;;;;;;;;;;;5051381;28;1728;-51
2022/11/14 17:56:20;;;;;;;;;;;;;;;;;;5051120;28;1379;-50
2022/11/14 17:59:14;;;;;;;;;;;;;;;;;;5050880;28;2049;-48
2022/11/14 18:02:00;;;;;;;;;;;;;;;;;;5051178;28;2115;-48
2022/11/14 18:04:47;;;;;;;;;;;;;;;;;;5051231;28;1937;-49
2022/11/14 18:07:33;;;;;;;;;;;;;;;;;;5051104;28;1998;-48
2022/11/14 18:10:19;;;;;;;;;;;;;;;;;;5051052;28;1976;-51
2022/11/14 18:13:05;;;;;;;;;;;;;;;;;;5051385;28;2183;-52
2022/11/14 18:15:50;;;;;;;;;;;;;;;;;;5050850;28;1976;-50
2022/11/14 18:18:36;;;;;;;;;;;;;;;;;;5051196;28;2238;-52
2022/11/14 18:21:23;;;;;;;;;;;;;;;;;;5050794;28;1985;-50
2022/11/14 18:24:10;;;;;;;;;;;;;;;;;;5051094;28;1847;-48
2022/11/14 18:26:57;;;;;;;;;;;;;;;;;;5050848;28;1986;-47
2022/11/14 18:29:43;;;;;;;;;;;;;;;;;;5049692;28;2062;-52
2022/11/14 18:32:29;;;;;;;;;;;;;;;;;;5035069;28;2055;-47
2022/11/14 18:35:15;;;;;;;;;;;;;;;;;;5034977;28;2015;-50
2022/11/14 18:38:00;;;;;;;;;;;;;;;;;;5034964;28;1903;-50
2022/11/14 18:40:46;;;;;;;;;;;;;;;;;;5034674;28;1986;-50
2022/11/14 18:43:36;;;;;;;;;;;;;;;;;;5039573;28;2021;-47
2022/11/14 18:46:22;;;;;;;;;;;;;;;;;;5054340;28;1938;-52
2022/11/14 18:49:08;;;;;;;;;;;;;;;;;;5054801;28;2020;-52
2022/11/14 18:51:55;;;;;;;;;;;;;;;;;;5054517;28;1917;-50
2022/11/14 18:54:40;;;;;;;;;;;;;;;;;;5054137;28;2121;-50
2022/11/14 18:57:26;;;;;;;;;;;;;;;;;;5054535;28;2089;-49
2022/11/14 19:00:12;;;;;;;;;;;;;;;;;;5054497;28;2044;-47
2022/11/14 19:02:57;;;;;;;;;;;;;;;;;;5053971;28;2156;-50
2022/11/14 19:05:47;;;;;;;;;;;;;;;;;;5054259;28;2066;-52
2022/11/14 19:08:33;;;;;;;;;;;;;;;;;;5054237;28;2001;-52
2022/11/14 19:14:24;;;;;;;;;;;;;;;;;;5054270;28;1920;-51
2022/11/14 19:17:10;;;;;;;;;;;;;;;;;;5053454;28;1813;-48
2022/11/14 19:19:55;;;;;;;;;;;;;;;;;;5054079;28;2014;-50
2022/11/14 19:22:41;;;;;;;;;;;;;;;;;;5054247;28;2208;-49
2022/11/14 19:25:27;;;;;;;;;;;;;;;;;;5053880;28;1917;-51
2022/11/14 19:28:14;;;;;;;;;;;;;;;;;;5054326;28;2244;-51
2022/11/14 19:31:04;;;;;;;;;;;;;;;;;;5053926;28;1952;-49
2022/11/14 19:33:50;;;;;;;;;;;;;;;;;;5053775;28;2084;-52
2022/11/14 19:36:35;;;;;;;;;;;;;;;;;;5054033;28;1958;-47
2022/11/14 19:39:41;;;;;;;;;;;;;;;;;;5053070;28;1990;-48
2022/11/14 19:42:26;;;;;;;;;;;;;;;;;;5053628;28;1906;-47
2022/11/14 19:45:13;;;;;;;;;;;;;;;;;;5035594;28;2017;-51
2022/11/14 19:47:59;;;;;;;;;;;;;;;;;;5033596;28;2182;-51
2022/11/14 19:50:45;;;;;;;;;;;;;;;;;;5033671;28;1849;-49